April Loon II — WDG4420 — position and weather

sailwx.info

Track history (hours):
 
Tides and Currents Weather Stations Pressure Air Temp Water Temp Dewpoint Dewpoint Depression Visibility Wind Speed Wind Dir Waves Ship Positions

April Loon II

Owner: DeJong, Hendrik, Los Osos, CA. More information available from US FCC via Universal Licensing System and Coast Guard Vessel Documentation Center.

Last reported at 2017-Sep-13 20:10 UTC. Time now 2017-Sep-23 11:20 UTC.
Position N 48°41' W 123°24'.
Warning: this ship's position is 9 days out of date.

Length 15 m.

Type: Pleasure craft. MMSI: 367536390.

Date/timePositionNaut miles runAvg speedWind from/ knotsBaromVisibWave heightAir tempDewpointWater temp
2017-Sep-13 20:10N 48°41' W 123°24'1 7.0
2017-Sep-13 19:59N 48°42' W 123°23'1 0.0
2017-Sep-12 20:10N 48°43' W 123°21'2 8.2
2017-Sep-12 19:56N 48°45' W 123°21'4 9.3
2017-Sep-12 19:30N 48°48' W 123°24'4 8.1
2017-Sep-12 19:00N 48°52' W 123°24'1 2.0
2017-Sep-12 18:30N 48°53' W 123°24'  
2017-Sep-08 00:21N 48°53' W 123°24'0 0.1
2017-Sep-08 00:00N 48°53' W 123°24'2 2.9
2017-Sep-07 23:29N 48°52' W 123°24'4 8.4
2017-Sep-07 23:00N 48°48' W 123°23'3 0.1
2017-Sep-05 22:17N 48°45' W 123°24'2 7.6
2017-Sep-05 22:00N 48°43' W 123°24'1 2.0
2017-Sep-05 21:29N 48°42' W 123°23'  
Track history (hours):
 
Tides and Currents Weather Stations Pressure Air Temp Water Temp Dewpoint Dewpoint Depression Visibility Wind Speed Wind Dir Waves Ship Positions

April Loon II

Owner: DeJong, Hendrik, Los Osos, CA. More information available from US FCC via Universal Licensing System and Coast Guard Vessel Documentation Center.

Last reported at 2017-Sep-13 20:10 UTC. Time now 2017-Sep-23 11:20 UTC.
Position N 48°41' W 123°24'.
Warning: this ship's position is 9 days out of date.

Length 15 m.

Type: Pleasure craft. MMSI: 367536390.

Date/timePositionNaut miles runAvg speedWind from/ knotsBaromVisibWave heightAir tempDewpointWater temp
2017-Sep-13 20:10N 48°41' W 123°24'1 7.0
2017-Sep-13 19:59N 48°42' W 123°23'1 0.0
2017-Sep-12 20:10N 48°43' W 123°21'2 8.2
2017-Sep-12 19:56N 48°45' W 123°21'4 9.3
2017-Sep-12 19:30N 48°48' W 123°24'4 8.1
2017-Sep-12 19:00N 48°52' W 123°24'1 2.0
2017-Sep-12 18:30N 48°53' W 123°24'  
2017-Sep-08 00:21N 48°53' W 123°24'0 0.1
2017-Sep-08 00:00N 48°53' W 123°24'2 2.9
2017-Sep-07 23:29N 48°52' W 123°24'4 8.4
2017-Sep-07 23:00N 48°48' W 123°23'3 0.1
2017-Sep-05 22:17N 48°45' W 123°24'2 7.6
2017-Sep-05 22:00N 48°43' W 123°24'1 2.0
2017-Sep-05 21:29N 48°42' W 123°23'  

Dump ship's entire track history